Time;durP1;ratioP1;P1;durP2;ratioP2;P2;SDS_P1;SDS_P2;PMS_P1;PMS_P2;Temp;Humidity;BMP_temperature;BMP_pressure;BME280_temperature;BME280_humidity;BME280_pressure;Samples;Min_cycle;Max_cycle;Signal;HPM_P1;HPM_P2
2023/10/09 00:03:00;;;;;;;8.35;3.15;;;12.40;93.20;;;;;;5010311;28;20125;-49
2023/10/09 00:08:37;;;;;;;7.43;3.30;;;12.40;93.30;;;;;;5012889;28;20100;-50
2023/10/09 00:11:16;;;;;;;5.90;2.75;;;12.40;93.30;;;;;;5020163;28;20045;-50
2023/10/09 00:13:57;;;;;;;9.13;2.90;;;12.40;93.30;;;;;;5016166;28;20069;-50
2023/10/09 00:16:40;;;;;;;9.40;4.03;;;12.40;93.40;;;;;;5009251;28;20044;-50
2023/10/09 00:19:34;;;;;;;8.70;3.75;;;12.40;93.40;;;;;;5034751;28;20095;-49
2023/10/09 00:22:04;;;;;;;7.07;3.00;;;12.40;93.40;;;;;;5034794;28;20029;-52
2023/10/09 00:24:41;;;;;;;9.60;3.80;;;12.40;93.30;;;;;;5016240;28;20485;-50
2023/10/09 00:27:19;;;;;;;6.35;2.60;;;12.40;93.40;;;;;;5028026;28;20048;-48
2023/10/09 00:29:48;;;;;;;7.78;3.45;;;12.40;93.40;;;;;;5034939;28;20021;-51
2023/10/09 00:32:22;;;;;;;8.40;3.88;;;12.40;93.50;;;;;;5023214;28;20061;-49
2023/10/09 00:34:59;;;;;;;8.65;3.88;;;12.40;93.50;;;;;;5014923;28;20037;-48
2023/10/09 00:37:28;;;;;;;7.63;3.28;;;12.40;93.50;;;;;;5029382;28;20111;-48
2023/10/09 00:40:12;;;;;;;8.27;3.03;;;12.30;93.50;;;;;;5033882;28;20037;-48
2023/10/09 00:42:43;;;;;;;9.15;3.88;;;12.40;93.50;;;;;;5034243;28;20459;-48
2023/10/09 00:45:16;;;;;;;9.43;3.25;;;12.30;93.50;;;;;;5034271;28;20068;-47
2023/10/09 00:47:43;;;;;;;7.75;3.97;;;12.30;93.50;;;;;;5034950;28;20044;-50
2023/10/09 00:52:48;;;;;;;11.23;3.88;;;12.30;93.70;;;;;;5033193;28;20042;-47
2023/10/09 00:58:23;;;;;;;13.18;4.32;;;12.30;93.80;;;;;;5017581;28;20371;-50
2023/10/09 01:00:53;;;;;;;14.63;4.35;;;12.30;93.90;;;;;;5025251;28;20069;-49
2023/10/09 01:03:22;;;;;;;;;;;12.30;93.90;;;;;;5014840;28;20037;-49
2023/10/09 01:11:31;;;;;;;10.98;5.43;;;12.30;94.00;;;;;;5031511;28;20037;-48
2023/10/09 01:16:31;;;;;;;8.38;4.32;;;12.40;94.10;;;;;;5026752;28;20022;-51
2023/10/09 01:18:59;;;;;;;10.52;5.20;;;12.30;94.00;;;;;;5025341;28;20439;-49
2023/10/09 01:21:31;;;;;;;10.25;4.55;;;12.40;94.10;;;;;;5024115;28;20022;-49
2023/10/09 01:24:03;;;;;;;11.48;5.43;;;12.30;94.00;;;;;;5033656;28;20347;-47
2023/10/09 01:26:46;;;;;;;15.40;6.03;;;12.30;93.90;;;;;;5024940;28;20080;-49
2023/10/09 01:29:21;;;;;;;8.25;4.40;;;12.30;94.00;;;;;;5026211;28;20041;-51
2023/10/09 01:32:06;;;;;;;11.07;5.32;;;12.20;94.10;;;;;;5020032;28;20573;-51
2023/10/09 01:34:43;;;;;;;9.38;6.15;;;12.20;94.10;;;;;;5013802;28;20037;-51
2023/10/09 01:37:29;;;;;;;11.52;5.43;;;12.20;94.20;;;;;;5016429;28;20482;-49
2023/10/09 01:39:59;;;;;;;8.65;4.97;;;12.20;94.20;;;;;;5020683;28;20025;-49
2023/10/09 01:42:34;;;;;;;;;;;12.20;94.20;;;;;;5031816;28;20046;-51
2023/10/09 01:46:04;;;;;;;10.20;5.18;;;12.20;94.20;;;;;;5032235;28;19917;-50
2023/10/09 01:47:58;;;;;;;9.65;5.28;;;12.20;94.20;;;;;;5020627;28;20037;-49
2023/10/09 01:50:31;;;;;;;11.93;5.55;;;12.20;94.20;;;;;;5032223;28;20477;-51
2023/10/09 01:53:00;;;;;;;10.90;5.03;;;12.20;94.30;;;;;;5029589;28;20026;-51
2023/10/09 02:00:53;;;;;;;9.60;6.25;;;12.30;94.30;;;;;;5027562;28;20033;-52
2023/10/09 02:03:24;;;;;;;7.22;4.68;;;12.20;94.20;;;;;;5033125;28;20021;-48
2023/10/09 02:05:51;;;;;;;14.65;6.70;;;12.10;94.20;;;;;;5023775;28;20371;-50
2023/10/09 02:08:26;;;;;;;9.60;6.35;;;12.20;94.30;;;;;;5003718;28;20095;-47
2023/10/09 02:10:55;;;;;;;10.18;6.35;;;12.10;94.30;;;;;;5013711;28;20503;-47
2023/10/09 02:13:29;;;;;;;8.07;6.43;;;12.00;94.30;;;;;;4998601;28;20041;-47
2023/10/09 02:16:16;;;;;;;10.68;5.45;;;12.10;94.50;;;;;;5016411;28;20032;-48
2023/10/09 02:18:59;;;;;;;11.75;5.78;;;12.10;94.40;;;;;;5033079;28;20087;-49
2023/10/09 02:21:45;;;;;;;8.45;6.40;;;12.00;94.50;;;;;;5032089;28;20025;-49
2023/10/09 02:24:41;;;;;;;11.50;5.82;;;12.00;94.50;;;;;;5025420;28;20038;-49
2023/10/09 02:27:07;;;;;;;10.93;5.85;;;12.10;94.60;;;;;;5032016;28;20044;-49
2023/10/09 02:29:38;;;;;;;11.70;5.80;;;12.10;94.60;;;;;;5032726;28;20327;-48
2023/10/09 02:32:14;;;;;;;10.93;6.10;;;12.10;94.70;;;;;;5031651;28;20065;-49
2023/10/09 02:34:46;;;;;;;11.10;6.53;;;12.10;94.70;;;;;;4996865;28;20030;-48
2023/10/09 02:37:14;;;;;;;14.10;5.93;;;12.10;94.70;;;;;;5013457;28;20807;-49
2023/10/09 02:39:48;;;;;;;11.57;7.53;;;12.10;94.60;;;;;;5028841;28;20459;-48
2023/10/09 02:42:29;;;;;;;11.10;6.82;;;12.10;94.70;;;;;;5012945;28;20099;-47
2023/10/09 02:44:58;;;;;;;16.08;7.57;;;12.10;94.80;;;;;;5013042;28;20068;-48
2023/10/09 02:47:30;;;;;;;;;;;12.20;94.70;;;;;;5012886;28;20478;-47
2023/10/09 02:50:06;;;;;;;14.15;7.25;;;12.20;94.80;;;;;;5028507;28;19912;-48
2023/10/09 02:52:40;;;;;;;11.65;6.72;;;12.20;94.70;;;;;;5022961;28;20072;-48
2023/10/09 02:55:38;;;;;;;13.20;6.43;;;12.10;94.70;;;;;;5029406;28;20064;-48
2023/10/09 02:58:11;;;;;;;16.10;7.20;;;12.10;94.70;;;;;;5030837;28;20367;-48
2023/10/09 03:00:48;;;;;;;;;;;12.20;94.80;;;;;;5037535;28;20041;-49
2023/10/09 03:03:20;;;;;;;15.10;7.72;;;12.20;94.70;;;;;;5038951;28;19920;-49
2023/10/09 03:05:51;;;;;;;14.75;7.97;;;12.10;94.70;;;;;;5021294;28;20048;-51
2023/10/09 03:08:19;;;;;;;14.60;7.35;;;12.20;94.80;;;;;;5020859;28;22051;-53
2023/10/09 03:10:47;;;;;;;13.60;7.63;;;12.10;94.70;;;;;;5036578;28;20363;-50
2023/10/09 03:13:19;;;;;;;12.02;7.70;;;12.10;94.80;;;;;;5033764;28;20486;-49
2023/10/09 03:15:48;;;;;;;12.73;7.82;;;12.20;94.80;;;;;;5036243;28;20053;-51
2023/10/09 03:18:14;;;;;;;14.32;8.68;;;12.20;94.90;;;;;;5037598;28;20017;-52
2023/10/09 03:20:41;;;;;;;13.95;8.18;;;12.20;94.80;;;;;;5037386;28;20116;-50
2023/10/09 03:23:13;;;;;;;12.10;7.97;;;12.20;94.80;;;;;;5018080;28;20375;-51
2023/10/09 03:25:45;;;;;;;16.48;8.93;;;12.20;94.80;;;;;;5034833;28;20029;-50
2023/10/09 03:28:15;;;;;;;14.88;8.90;;;12.20;95.00;;;;;;5038820;28;20331;-50
2023/10/09 03:30:47;;;;;;;18.90;10.88;;;12.20;94.90;;;;;;5026178;28;20067;-52
2023/10/09 03:33:15;;;;;;;17.33;10.52;;;12.20;94.80;;;;;;5034758;28;20095;-51
2023/10/09 03:35:43;;;;;;;19.58;10.77;;;12.20;94.90;;;;;;5018820;28;20060;-50
2023/10/09 03:38:12;;;;;;;18.88;11.30;;;12.20;94.90;;;;;;5035392;28;20040;-51
2023/10/09 03:40:42;;;;;;;;;;;12.20;95.10;;;;;;5033518;28;20032;-51
2023/10/09 03:43:13;;;;;;;20.10;11.93;;;12.30;95.10;;;;;;5017784;28;20301;-51
2023/10/09 03:46:04;;;;;;;17.83;11.63;;;12.30;95.10;;;;;;5018958;28;20026;-51
2023/10/09 03:48:32;;;;;;;22.75;11.93;;;12.20;95.10;;;;;;5028441;28;20033;-51
2023/10/09 03:51:13;;;;;;;22.80;12.82;;;12.20;95.20;;;;;;5037726;28;20519;-51
2023/10/09 03:53:55;;;;;;;19.17;12.35;;;12.20;95.20;;;;;;5038632;28;20041;-50
2023/10/09 03:56:23;;;;;;;21.65;14.43;;;12.20;95.40;;;;;;5037607;28;20021;-52
2023/10/09 03:58:55;;;;;;;17.33;13.02;;;12.30;95.40;;;;;;5023000;28;20064;-50
2023/10/09 04:03:55;;;;;;;18.30;12.70;;;12.20;95.40;;;;;;5015605;28;20116;-49
2023/10/09 04:06:30;;;;;;;20.45;13.13;;;12.30;95.50;;;;;;5038489;28;20485;-50
2023/10/09 04:08:58;;;;;;;21.63;14.57;;;12.30;95.60;;;;;;5036039;28;20033;-56
2023/10/09 04:11:25;;;;;;;21.20;13.40;;;12.30;95.50;;;;;;5014265;28;20049;-53
2023/10/09 04:14:00;;;;;;;21.33;15.63;;;12.30;95.60;;;;;;5030520;28;20037;-50
2023/10/09 04:18:57;;;;;;;24.25;14.13;;;12.30;95.60;;;;;;5009224;28;20109;-50
2023/10/09 04:21:36;;;;;;;30.02;15.70;;;12.30;95.70;;;;;;5015249;28;20038;-50
2023/10/09 04:26:44;;;;;;;28.70;17.15;;;12.40;95.70;;;;;;5015442;28;20045;-50
2023/10/09 04:29:27;;;;;;;25.20;15.65;;;12.40;95.70;;;;;;5015230;28;20121;-51
2023/10/09 04:31:55;;;;;;;28.77;18.13;;;12.40;95.80;;;;;;5008707;28;20474;-51
2023/10/09 04:34:28;;;;;;;30.95;18.48;;;12.40;95.80;;;;;;5010510;28;20136;-51
2023/10/09 04:37:00;;;;;;;29.58;18.17;;;12.40;95.80;;;;;;5028731;28;20022;-51
2023/10/09 04:47:57;;;;;;;34.20;20.55;;;12.40;95.90;;;;;;4989990;28;20050;-49
2023/10/09 04:53:50;;;;;;;36.22;21.98;;;12.50;96.00;;;;;;4995704;28;20101;-50
2023/10/09 04:55:55;;;;;;;35.17;20.15;;;12.40;96.10;;;;;;5005058;28;20420;-51
2023/10/09 04:58:41;;;;;;;34.00;20.67;;;12.50;96.10;;;;;;5014417;28;20030;-51
2023/10/09 05:01:35;;;;;;;35.80;19.88;;;12.50;96.20;;;;;;5013219;28;20064;-51
2023/10/09 05:04:04;;;;;;;41.75;22.33;;;12.50;96.20;;;;;;5012611;28;20040;-50
2023/10/09 05:09:55;;;;;;;33.60;21.73;;;12.60;96.30;;;;;;4977545;28;20037;-50
2023/10/09 05:12:19;;;;;;;38.50;21.35;;;12.60;96.30;;;;;;5029084;28;20045;-50
2023/10/09 05:15:07;;;;;;;43.97;24.38;;;12.60;96.30;;;;;;5033809;28;20029;-49
2023/10/09 05:17:38;;;;;;;39.60;21.52;;;12.60;96.40;;;;;;5014460;28;20029;-49
2023/10/09 05:23:23;;;;;;;35.45;22.15;;;12.70;96.40;;;;;;5014039;28;20049;-52
2023/10/09 05:25:58;;;;;;;45.17;22.73;;;12.70;96.50;;;;;;5006028;28;20042;-48
2023/10/09 05:28:48;;;;;;;43.65;23.38;;;12.80;96.50;;;;;;5014416;28;20056;-48
2023/10/09 05:34:06;;;;;;;40.65;24.23;;;12.80;96.40;;;;;;5033819;28;20474;-47
2023/10/09 05:36:35;;;;;;;46.53;24.23;;;12.80;96.50;;;;;;5031456;28;20052;-47
2023/10/09 05:39:18;;;;;;;44.55;23.83;;;12.80;96.50;;;;;;5031839;28;20358;-49
2023/10/09 05:41:59;;;;;;;47.08;24.63;;;12.80;96.50;;;;;;5022997;28;20022;-47
2023/10/09 06:19:26;;;;;;;53.85;30.23;;;13.30;96.90;;;;;;5009135;28;20036;-47
2023/10/09 06:24:42;;;;;;;55.60;30.42;;;13.40;96.90;;;;;;5018744;28;20053;-47
2023/10/09 06:48:55;;;;;;;60.45;30.45;;;13.90;97.10;;;;;;5012334;28;20036;-47
2023/10/09 06:59:15;;;;;;;46.83;26.63;;;14.00;97.10;;;;;;5026948;28;20462;-47
2023/10/09 07:01:49;;;;;;;58.55;31.75;;;14.00;97.10;;;;;;5011285;28;20064;-46
2023/10/09 07:05:10;;;;;;;55.35;29.92;;;14.10;97.20;;;;;;5009646;28;20509;-47
2023/10/09 07:07:16;;;;;;;53.97;30.60;;;14.10;97.20;;;;;;5010163;28;20523;-46
2023/10/09 07:12:42;;;;;;;50.50;28.67;;;14.10;97.20;;;;;;5028594;28;20103;-47
2023/10/09 07:18:18;;;;;;;50.15;27.63;;;14.20;97.20;;;;;;5022102;28;20542;-49
2023/10/09 07:20:56;;;;;;;51.83;27.50;;;14.20;97.30;;;;;;5027799;28;20502;-47
2023/10/09 07:23:32;;;;;;;57.67;28.73;;;14.30;97.30;;;;;;5027385;28;20558;-46
2023/10/09 07:26:18;;;;;;;46.80;27.23;;;14.30;97.30;;;;;;5028648;28;20037;-49
2023/10/09 07:28:48;;;;;;;47.10;26.40;;;14.40;97.30;;;;;;5028554;28;20021;-46
2023/10/09 07:31:28;;;;;;;49.95;27.50;;;14.40;97.30;;;;;;5033070;28;20033;-46
2023/10/09 07:34:06;;;;;;;43.53;26.33;;;14.40;97.30;;;;;;5038237;28;20036;-47
2023/10/09 07:36:35;;;;;;;52.22;28.63;;;14.40;97.30;;;;;;5035226;28;20026;-46
2023/10/09 07:39:02;;;;;;;44.03;26.58;;;14.40;97.30;;;;;;5029234;28;20096;-50
2023/10/09 07:44:18;;;;;;;49.83;26.90;;;14.50;97.30;;;;;;5030953;28;20083;-46
2023/10/09 07:46:52;;;;;;;44.42;26.02;;;14.50;97.30;;;;;;5000192;28;20037;-47
2023/10/09 07:49:32;;;;;;;48.97;29.40;;;14.60;97.40;;;;;;5033723;28;20034;-47
2023/10/09 07:51:59;;;;;;;46.00;27.15;;;14.60;97.40;;;;;;5040794;28;20105;-48
2023/10/09 07:54:32;;;;;;;44.13;27.95;;;14.60;97.40;;;;;;5024268;28;20048;-50
2023/10/09 07:57:16;;;;;;;58.85;30.02;;;14.70;97.40;;;;;;5030602;28;20037;-48
2023/10/09 08:00:01;;;;;;;48.75;25.75;;;14.70;97.40;;;;;;5033141;28;20021;-47
2023/10/09 08:02:36;;;;;;;50.97;27.05;;;14.70;97.40;;;;;;5028952;28;20030;-47
2023/10/09 08:05:07;;;;;;;42.70;25.38;;;14.80;97.40;;;;;;5027223;28;20108;-47
2023/10/09 08:07:54;;;;;;;43.83;25.88;;;14.80;97.40;;;;;;5021823;28;20045;-47
2023/10/09 08:15:51;;;;;;;46.03;23.35;;;14.90;97.40;;;;;;5042351;28;20064;-49
2023/10/09 08:18:44;;;;;;;31.38;19.25;;;14.90;97.40;;;;;;5032879;28;20021;-50
2023/10/09 08:23:50;;;;;;;33.97;19.15;;;14.90;97.50;;;;;;5033619;28;20026;-50
2023/10/09 08:26:31;;;;;;;30.13;17.30;;;15.10;97.50;;;;;;5027664;28;20029;-50
2023/10/09 08:29:20;;;;;;;40.17;18.98;;;15.10;97.60;;;;;;5027304;28;20021;-49
2023/10/09 08:31:56;;;;;;;31.33;15.70;;;15.20;97.50;;;;;;5026040;28;20049;-49
2023/10/09 08:34:27;;;;;;;35.67;16.08;;;15.30;97.50;;;;;;5029010;28;20055;-49
2023/10/09 08:36:53;;;;;;;36.05;15.98;;;15.30;97.50;;;;;;5021431;28;20343;-50
2023/10/09 08:39:35;;;;;;;28.13;15.32;;;15.30;97.60;;;;;;5032982;28;20033;-50
2023/10/09 08:42:14;;;;;;;31.80;14.98;;;15.40;97.60;;;;;;5032985;28;20043;-50
2023/10/09 08:44:52;;;;;;;25.58;13.63;;;15.40;97.60;;;;;;5031232;28;20494;-49
2023/10/09 08:47:21;;;;;;;30.13;14.15;;;15.40;97.60;;;;;;5032834;28;20043;-52
2023/10/09 08:49:47;;;;;;;27.40;12.98;;;15.40;97.60;;;;;;5031300;28;20037;-49
2023/10/09 08:52:15;;;;;;;30.60;12.73;;;15.50;97.60;;;;;;5032838;28;20037;-50
2023/10/09 08:54:45;;;;;;;30.05;13.65;;;15.50;97.60;;;;;;5032940;28;20039;-54
2023/10/09 08:57:22;;;;;;;28.70;14.50;;;15.50;97.60;;;;;;5028274;28;20536;-49
2023/10/09 08:59:47;;;;;;;25.90;12.15;;;15.60;97.70;;;;;;5031876;28;20447;-53
2023/10/09 09:02:15;;;;;;;30.15;12.02;;;15.60;97.70;;;;;;5031855;28;20049;-51
2023/10/09 09:04:45;;;;;;;31.55;12.88;;;15.60;97.70;;;;;;5026990;28;20395;-51
2023/10/09 09:07:33;;;;;;;31.75;11.63;;;15.60;97.70;;;;;;5031993;28;20029;-50
2023/10/09 09:10:22;;;;;;;31.15;12.45;;;15.60;97.70;;;;;;5032047;28;20066;-48
2023/10/09 09:13:00;;;;;;;26.85;11.82;;;15.60;97.70;;;;;;5021520;28;20041;-50
2023/10/09 09:15:39;;;;;;;20.85;10.93;;;15.60;97.70;;;;;;5024682;28;20033;-49
2023/10/09 09:18:10;;;;;;;28.48;13.20;;;15.60;97.70;;;;;;5032052;28;20024;-51
2023/10/09 09:20:45;;;;;;;39.95;13.70;;;15.60;97.70;;;;;;5033686;28;20037;-50
2023/10/09 09:23:13;;;;;;;25.27;12.50;;;15.60;97.70;;;;;;5024824;28;20079;-51
2023/10/09 09:25:46;;;;;;;21.90;11.48;;;15.60;97.70;;;;;;5029910;28;20037;-51
2023/10/09 09:28:12;;;;;;;25.85;12.35;;;15.60;97.70;;;;;;5011862;28;20033;-53
2023/10/09 09:30:40;;;;;;;25.77;12.32;;;15.60;97.70;;;;;;5028316;28;20037;-51
2023/10/09 09:34:04;;;;;;;32.75;11.10;;;15.60;97.80;;;;;;5028762;28;20030;-49
2023/10/09 09:36:13;;;;;;;26.83;11.90;;;15.60;97.70;;;;;;4999331;28;20041;-48
2023/10/09 09:38:47;;;;;;;26.92;11.75;;;15.70;97.80;;;;;;5025269;28;20053;-52
2023/10/09 09:41:24;;;;;;;32.13;11.40;;;15.70;97.70;;;;;;5028220;28;20351;-49
2023/10/09 09:43:57;;;;;;;18.67;10.20;;;15.80;97.80;;;;;;5031749;28;20124;-48
2023/10/09 09:46:37;;;;;;;29.98;11.52;;;15.80;97.80;;;;;;5008371;28;20049;-48
2023/10/09 09:49:31;;;;;;;30.35;10.27;;;15.80;97.80;;;;;;4998825;28;20040;-48
2023/10/09 09:52:02;;;;;;;33.17;11.05;;;15.80;97.70;;;;;;5015944;28;20408;-48
2023/10/09 09:54:35;;;;;;;24.25;11.38;;;15.80;97.70;;;;;;5013614;28;20034;-49
2023/10/09 09:57:08;;;;;;;30.25;11.50;;;15.80;97.70;;;;;;5016547;28;20561;-48
2023/10/09 09:59:49;;;;;;;32.88;11.23;;;15.80;97.70;;;;;;5030884;28;20084;-55
2023/10/09 10:02:23;;;;;;;29.60;11.75;;;15.80;97.80;;;;;;5028094;28;20041;-52
2023/10/09 10:04:54;;;;;;;30.13;10.60;;;15.80;97.80;;;;;;5012896;28;21346;-56
2023/10/09 10:07:25;;;;;;;27.30;10.02;;;15.80;97.80;;;;;;5008841;28;20581;-51
2023/10/09 10:09:54;;;;;;;24.67;10.93;;;15.90;97.70;;;;;;5006705;28;20033;-50
2023/10/09 10:13:01;;;;;;;25.38;9.55;;;15.90;97.80;;;;;;5030324;28;20085;-50
2023/10/09 10:16:23;;;;;;;18.30;7.65;;;15.90;97.70;;;;;;5026257;28;20030;-51
2023/10/09 10:18:59;;;;;;;15.55;7.55;;;15.90;97.60;;;;;;4977320;28;20447;-51
2023/10/09 10:24:11;;;;;;;19.83;6.88;;;15.90;97.50;;;;;;5029160;28;20036;-50
2023/10/09 10:27:08;;;;;;;13.63;6.20;;;15.90;97.60;;;;;;5028861;28;20455;-51
2023/10/09 10:29:34;;;;;;;19.80;6.18;;;16.00;97.50;;;;;;5029458;28;20494;-51
2023/10/09 10:32:10;;;;;;;12.68;6.47;;;16.00;97.50;;;;;;5025026;28;20057;-53
2023/10/09 10:34:57;;;;;;;14.95;5.50;;;16.00;97.50;;;;;;5027061;28;20120;-49
2023/10/09 10:37:51;;;;;;;16.90;5.65;;;16.10;97.40;;;;;;5004482;28;20113;-49
2023/10/09 10:41:11;;;;;;;15.73;6.47;;;16.20;97.40;;;;;;5029026;28;20025;-55
2023/10/09 10:46:13;;;;;;;;;;;16.40;97.40;;;;;;5028558;28;20037;-53
2023/10/09 10:48:46;;;;;;;18.20;6.57;;;16.40;97.30;;;;;;5029746;28;19916;-53
2023/10/09 10:51:15;;;;;;;11.68;5.28;;;16.30;97.30;;;;;;5022291;28;20033;-51
2023/10/09 10:53:58;;;;;;;17.30;6.85;;;16.30;97.30;;;;;;5030567;28;20025;-50
2023/10/09 10:56:37;;;;;;;13.02;6.15;;;16.30;97.20;;;;;;5026288;28;20017;-50
2023/10/09 11:04:38;;;;;;;16.48;7.07;;;16.30;97.20;;;;;;5027775;28;20501;-53
2023/10/09 11:15:57;;;;;;;18.75;6.18;;;16.10;97.00;;;;;;5010883;28;20044;-52
2023/10/09 11:18:26;;;;;;;14.40;5.75;;;16.10;97.00;;;;;;5029692;28;20029;-52
2023/10/09 11:21:12;;;;;;;14.75;6.70;;;16.00;97.00;;;;;;5031367;28;20021;-55
2023/10/09 11:23:57;;;;;;;14.70;6.07;;;16.00;96.90;;;;;;5031477;28;20085;-54
2023/10/09 11:26:28;;;;;;;10.73;3.55;;;16.10;97.00;;;;;;5034305;28;20870;-51
2023/10/09 11:29:23;;;;;;;11.68;3.63;;;16.10;97.00;;;;;;5012238;28;20033;-49
2023/10/09 11:32:05;;;;;;;9.88;3.78;;;16.20;97.00;;;;;;5031031;28;20053;-51
2023/10/09 11:34:36;;;;;;;13.82;4.38;;;16.40;97.10;;;;;;5031695;28;20061;-49
2023/10/09 11:37:39;;;;;;;9.85;3.38;;;16.30;96.90;;;;;;5033102;28;20075;-49
2023/10/09 11:40:23;;;;;;;13.45;3.10;;;16.40;96.90;;;;;;5033289;28;20041;-49
2023/10/09 11:45:28;;;;;;;11.27;3.28;;;16.60;96.80;;;;;;5032675;28;20037;-48
2023/10/09 11:47:59;;;;;;;10.32;3.13;;;16.70;96.70;;;;;;5032843;28;20040;-46
2023/10/09 11:50:55;;;;;;;10.68;3.47;;;16.70;96.60;;;;;;5031705;28;20033;-47
2023/10/09 11:55:58;;;;;;;11.95;3.30;;;16.70;96.20;;;;;;5032391;28;20076;-47
2023/10/09 11:58:27;;;;;;;9.50;3.00;;;16.70;96.00;;;;;;5031622;28;20045;-48
2023/10/09 12:01:04;;;;;;;9.32;3.53;;;16.50;95.70;;;;;;5032650;28;20025;-47
2023/10/09 12:03:33;;;;;;;11.95;3.50;;;16.60;95.50;;;;;;5031700;28;20427;-48
2023/10/09 12:06:10;;;;;;;8.80;2.80;;;16.60;95.50;;;;;;5031998;28;20374;-50
2023/10/09 12:08:41;;;;;;;9.60;2.35;;;16.60;95.30;;;;;;5033239;28;20064;-53
2023/10/09 12:11:11;;;;;;;10.43;2.20;;;16.50;95.00;;;;;;5011963;28;20046;-49
2023/10/09 12:13:42;;;;;;;10.40;2.35;;;16.50;94.90;;;;;;5006295;28;20033;-51
2023/10/09 12:16:32;;;;;;;7.88;2.17;;;16.40;94.70;;;;;;4993011;28;20030;-51
2023/10/09 12:19:09;;;;;;;10.07;3.05;;;16.30;94.60;;;;;;4996812;28;20058;-49
2023/10/09 12:21:42;;;;;;;8.65;2.63;;;16.20;94.60;;;;;;4994569;28;20034;-49
2023/10/09 12:24:18;;;;;;;5.18;1.70;;;16.20;94.60;;;;;;4993965;28;20423;-49
2023/10/09 12:26:47;;;;;;;8.65;2.22;;;16.20;94.70;;;;;;4991954;28;20041;-54
2023/10/09 12:29:14;;;;;;;11.15;2.50;;;16.20;94.70;;;;;;4995180;28;20084;-50
2023/10/09 12:31:45;;;;;;;10.38;2.78;;;16.20;94.50;;;;;;4989408;28;20436;-51
2023/10/09 12:34:16;;;;;;;4.78;1.85;;;16.10;94.50;;;;;;4993809;28;20034;-51
2023/10/09 12:36:49;;;;;;;4.93;1.88;;;16.10;94.70;;;;;;4990033;28;20045;-48
2023/10/09 12:39:20;;;;;;;8.90;2.40;;;16.10;94.80;;;;;;4995784;28;20035;-48
2023/10/09 12:41:46;;;;;;;4.68;1.40;;;16.10;95.00;;;;;;4996872;28;20041;-49
2023/10/09 12:44:18;;;;;;;8.63;2.20;;;16.20;95.10;;;;;;5012632;28;20045;-49
2023/10/09 12:46:54;;;;;;;6.75;1.80;;;16.10;95.10;;;;;;4999395;28;20469;-49
2023/10/09 12:49:25;;;;;;;7.13;2.13;;;16.10;95.00;;;;;;4999402;28;20038;-50
2023/10/09 12:51:52;;;;;;;7.43;1.80;;;16.10;94.90;;;;;;5004001;28;20092;-49
2023/10/09 12:54:26;;;;;;;8.88;2.08;;;16.00;94.90;;;;;;4994338;28;20601;-48
2023/10/09 12:56:57;;;;;;;15.23;2.38;;;16.10;95.00;;;;;;5009995;28;20462;-51
2023/10/09 12:59:24;;;;;;;10.68;2.70;;;16.20;94.90;;;;;;5010250;28;20037;-54
2023/10/09 13:01:57;;;;;;;8.80;2.42;;;16.20;94.70;;;;;;5002854;28;20462;-53
2023/10/09 13:04:31;;;;;;;10.68;2.58;;;16.20;94.50;;;;;;5017150;28;20035;-55
2023/10/09 13:07:02;;;;;;;5.78;2.05;;;16.20;94.30;;;;;;5003530;28;20034;-54
2023/10/09 13:09:42;;;;;;;5.43;2.08;;;16.20;94.30;;;;;;4981612;28;20112;-54
2023/10/09 13:12:17;;;;;;;8.93;1.75;;;16.20;93.90;;;;;;5018752;28;20132;-52
2023/10/09 13:14:49;;;;;;;5.60;2.03;;;16.10;93.80;;;;;;5024150;28;20032;-51
2023/10/09 13:17:21;;;;;;;6.85;1.83;;;16.10;94.00;;;;;;5030976;28;20078;-52
2023/10/09 13:19:49;;;;;;;6.57;1.70;;;16.20;94.10;;;;;;5031569;28;20389;-52
2023/10/09 13:22:17;;;;;;;8.02;2.15;;;16.10;94.20;;;;;;5027618;28;20054;-54
2023/10/09 13:24:48;;;;;;;10.20;2.10;;;16.20;94.20;;;;;;5029961;28;20049;-58
2023/10/09 13:27:21;;;;;;;8.68;1.95;;;16.20;94.30;;;;;;5031892;28;20108;-53
2023/10/09 13:30:05;;;;;;;3.72;1.35;;;16.10;94.40;;;;;;5034376;28;20041;-58
2023/10/09 13:32:36;;;;;;;4.20;1.05;;;16.10;94.40;;;;;;5032281;28;20063;-53
2023/10/09 13:35:04;;;;;;;5.72;1.90;;;16.00;94.40;;;;;;5033001;28;20025;-54
2023/10/09 13:37:37;;;;;;;5.10;2.22;;;16.00;94.70;;;;;;5030911;28;20554;-54
2023/10/09 13:40:26;;;;;;;5.65;1.30;;;16.10;94.90;;;;;;5030075;28;20128;-53
2023/10/09 13:42:58;;;;;;;6.72;2.00;;;16.00;94.90;;;;;;5029411;28;20053;-51
2023/10/09 13:45:30;;;;;;;9.77;2.55;;;16.00;94.90;;;;;;5029034;28;20049;-54
2023/10/09 13:48:03;;;;;;;6.10;2.20;;;15.90;94.90;;;;;;5029639;28;20037;-53
2023/10/09 13:50:34;;;;;;;4.55;1.58;;;15.90;95.00;;;;;;5026061;28;20099;-57
2023/10/09 13:53:00;;;;;;;8.57;2.00;;;15.90;94.80;;;;;;5031898;28;20037;-59
2023/10/09 13:55:31;;;;;;;12.73;5.07;;;15.80;94.90;;;;;;5029668;28;20034;-58
2023/10/09 13:58:00;;;;;;;9.35;1.83;;;15.80;94.90;;;;;;5020877;28;20021;-56
2023/10/09 14:00:33;;;;;;;6.65;1.83;;;15.80;94.80;;;;;;5029933;28;20145;-56
2023/10/09 14:03:11;;;;;;;7.10;1.95;;;15.80;94.80;;;;;;5031027;28;20172;-55
2023/10/09 14:05:51;;;;;;;7.00;1.65;;;15.90;94.90;;;;;;5014639;28;20041;-54
2023/10/09 14:08:22;;;;;;;9.55;2.20;;;15.90;94.90;;;;;;5030220;28;20080;-56
2023/10/09 14:10:49;;;;;;;7.93;1.52;;;16.10;95.00;;;;;;5013292;28;20489;-55
2023/10/09 14:13:16;;;;;;;7.22;2.53;;;16.20;94.70;;;;;;5019721;28;20041;-51
2023/10/09 14:15:45;;;;;;;6.00;1.80;;;16.20;94.50;;;;;;5030241;28;20032;-57
2023/10/09 14:18:12;;;;;;;6.88;1.73;;;16.20;94.20;;;;;;5029605;28;20402;-57
2023/10/09 14:20:41;;;;;;;3.40;1.30;;;16.10;93.90;;;;;;5030488;28;20030;-55
2023/10/09 14:23:12;;;;;;;6.28;1.60;;;16.00;93.70;;;;;;5029345;28;20029;-55
2023/10/09 14:25:44;;;;;;;7.18;2.67;;;16.00;93.70;;;;;;5028810;28;20095;-50
2023/10/09 14:28:11;;;;;;;5.63;1.65;;;15.90;93.50;;;;;;5028560;28;20099;-50
2023/10/09 14:30:41;;;;;;;7.03;1.92;;;15.90;93.60;;;;;;5026354;28;20083;-52
2023/10/09 14:33:22;;;;;;;10.98;2.13;;;15.90;93.80;;;;;;5021200;28;20405;-49
2023/10/09 14:35:52;;;;;;;9.00;1.55;;;16.00;93.90;;;;;;5029704;28;20149;-50
2023/10/09 14:38:26;;;;;;;6.22;1.70;;;15.90;93.90;;;;;;5030123;28;20108;-56
2023/10/09 14:41:02;;;;;;;4.75;1.65;;;15.80;93.90;;;;;;5028792;28;20383;-51
2023/10/09 14:43:33;;;;;;;7.18;1.52;;;16.00;94.30;;;;;;5026692;28;20033;-51
2023/10/09 14:45:59;;;;;;;10.18;1.95;;;15.90;94.20;;;;;;5027132;28;20021;-50
2023/10/09 14:48:29;;;;;;;4.60;1.63;;;15.90;94.10;;;;;;5028354;28;20045;-55
2023/10/09 14:50:56;;;;;;;7.22;1.42;;;15.80;93.90;;;;;;5026183;28;20025;-57
2023/10/09 14:53:26;;;;;;;7.75;1.65;;;15.70;93.90;;;;;;5030609;28;20340;-51
2023/10/09 14:55:56;;;;;;;;;;;15.70;93.90;;;;;;5029027;28;20541;-51
2023/10/09 14:58:32;;;;;;;4.63;1.30;;;15.70;93.90;;;;;;5025989;28;19909;-56
2023/10/09 15:01:12;;;;;;;11.20;2.08;;;15.70;94.10;;;;;;5030177;28;20108;-55
2023/10/09 15:03:42;;;;;;;13.85;1.73;;;15.60;93.90;;;;;;5028495;28;20037;-53
2023/10/09 15:06:11;;;;;;;6.60;1.73;;;15.60;94.00;;;;;;5021848;28;20144;-55
2023/10/09 15:08:37;;;;;;;6.80;2.38;;;15.50;94.10;;;;;;5027221;28;20593;-52
2023/10/09 15:11:06;;;;;;;6.05;1.92;;;15.50;94.10;;;;;;5029934;28;20148;-53
2023/10/09 15:13:33;;;;;;;7.18;1.63;;;15.50;94.20;;;;;;5025958;28;20049;-50
2023/10/09 15:16:02;;;;;;;8.80;2.20;;;15.50;94.20;;;;;;5028251;28;20021;-51
2023/10/09 15:18:28;;;;;;;5.57;1.42;;;15.60;94.10;;;;;;5027135;28;20033;-50
2023/10/09 15:20:54;;;;;;;8.07;1.65;;;15.60;94.10;;;;;;5030056;28;20035;-50
2023/10/09 15:23:21;;;;;;;7.20;1.13;;;15.50;94.00;;;;;;5023126;28;20511;-49
2023/10/09 15:25:51;;;;;;;8.60;1.63;;;15.40;93.90;;;;;;5024763;28;20063;-52
2023/10/09 15:28:32;;;;;;;6.03;1.75;;;15.50;93.80;;;;;;5029795;28;20106;-50
2023/10/09 15:31:06;;;;;;;9.55;1.38;;;15.40;93.60;;;;;;5005416;28;20351;-49
2023/10/09 15:33:34;;;;;;;6.47;1.10;;;15.40;93.60;;;;;;5029829;28;20033;-54
2023/10/09 15:36:11;;;;;;;6.22;1.33;;;15.50;93.40;;;;;;5028346;28;20032;-49
2023/10/09 15:38:38;;;;;;;5.45;0.98;;;15.40;93.00;;;;;;5028173;28;20040;-50
2023/10/09 15:41:07;;;;;;;6.53;1.63;;;15.40;92.90;;;;;;5029723;28;20484;-49
2023/10/09 15:43:35;;;;;;;10.20;1.58;;;15.40;93.00;;;;;;5027977;28;20034;-49
2023/10/09 15:46:10;;;;;;;8.07;1.40;;;15.40;93.20;;;;;;5005585;28;20049;-50
2023/10/09 15:48:38;;;;;;;4.75;1.58;;;15.40;93.30;;;;;;5028549;28;20063;-49
2023/10/09 15:51:11;;;;;;;5.70;1.17;;;15.40;93.40;;;;;;5028342;28;20035;-49
2023/10/09 15:53:43;;;;;;;6.10;1.33;;;15.40;93.40;;;;;;5011674;28;20033;-52
2023/10/09 15:56:12;;;;;;;7.53;1.40;;;15.40;93.20;;;;;;5010826;28;20083;-49